Antimony, Utah
Current Conditions -  °F | °C
As of 4:53 AM on Monday 26 Jan 2015 (Local Time) from KBCE Reporting Station
Clear Clear  
Wind Chill: 13°   Ceiling: Unl
Heat Index: 22°   Visibility: 10mi
Dew Point: 20°   Wind: 7mph
Humidity: 92%   Direction: 260°W
Pressure: 30.41"   Gusts: NA
Location:  38.12°N, 112°W
Report Text: KBCE 261153Z AUTO 26006KT 10SM CLR M06/M07 A3041 RMK AO2 SLP262 T10561067 11028 21056 58001 $
Loading
Personal Weather Stations






























Interactive Weather Map New forecast layout! Learn more

10-Day Weather Forecast

Advertisements
Track Severe Weather on mobile